Time;durP1;ratioP1;P1;durP2;ratioP2;P2;SDS_P1;SDS_P2;PMS_P1;PMS_P2;Temp;Humidity;BMP_temperature;BMP_pressure;BME280_temperature;BME280_humidity;BME280_pressure;Samples;Min_cycle;Max_cycle;Signal;HPM_P1;HPM_P2
2022/03/06 00:00:44;;;;;;;15.00;9.95;;;;;;;16.45;46.89;101957.47;5036642;28;20119;-32
2022/03/06 00:03:10;;;;;;;14.93;10.23;;;;;;;16.41;46.93;101951.59;5019915;28;20381;-40
2022/03/06 00:05:36;;;;;;;17.40;10.55;;;;;;;16.43;46.77;101962.25;5054947;28;20033;-38
2022/03/06 00:08:02;;;;;;;16.30;10.75;;;;;;;16.44;46.84;101964.78;5037728;28;20467;-38
2022/03/06 00:10:29;;;;;;;19.23;11.75;;;;;;;16.44;46.66;101962.06;5054431;28;20120;-33
2022/03/06 00:12:55;;;;;;;13.32;9.73;;;;;;;16.44;46.91;101964.78;5019147;28;20039;-37
2022/03/06 00:15:22;;;;;;;14.00;9.15;;;;;;;16.45;46.59;101969.19;5054512;28;20037;-34
2022/03/06 00:17:49;;;;;;;16.67;10.50;;;;;;;16.43;46.74;101964.97;5054169;28;20036;-37
2022/03/06 00:20:16;;;;;;;19.15;11.75;;;;;;;16.43;46.38;101973.09;5054331;28;20029;-36
2022/03/06 00:22:41;;;;;;;15.57;10.80;;;;;;;16.43;46.44;101971.22;5053790;28;20086;-37
2022/03/06 00:25:08;;;;;;;17.48;10.35;;;;;;;16.40;46.74;101968.06;5054114;28;20112;-37
2022/03/06 00:27:34;;;;;;;14.77;10.30;;;;;;;16.42;46.71;101972.28;5053793;28;20044;-34
2022/03/06 00:30:00;;;;;;;15.50;10.98;;;;;;;16.36;46.73;101955.94;5053703;28;20029;-33
2022/03/06 00:32:26;;;;;;;16.30;10.57;;;;;;;16.44;46.91;101961.25;5036048;28;20107;-33
2022/03/06 00:34:52;;;;;;;14.55;10.05;;;;;;;16.44;46.68;101964.78;5036296;28;20187;-37
2022/03/06 00:37:18;;;;;;;15.73;9.73;;;;;;;16.41;46.62;101954.31;5053576;28;20025;-35
2022/03/06 00:39:44;;;;;;;13.68;9.85;;;;;;;16.41;46.87;101953.50;5053883;28;20135;-37
2022/03/06 00:42:12;;;;;;;11.95;8.23;;;;;;;16.37;47.14;101950.31;5054064;28;20040;-36
2022/03/06 00:44:38;;;;;;;14.68;9.52;;;;;;;16.47;46.71;101960.00;5053773;28;20032;-33
2022/03/06 00:47:04;;;;;;;13.75;10.02;;;;;;;16.44;46.53;101953.09;5053135;28;20037;-32
2022/03/06 00:49:31;;;;;;;20.58;10.40;;;;;;;16.40;46.50;101951.78;5035995;28;20033;-33
2022/03/06 00:51:57;;;;;;;14.70;9.35;;;;;;;16.41;46.69;101970.59;5053105;28;20035;-36
2022/03/06 00:54:23;;;;;;;12.15;8.35;;;;;;;16.45;46.88;101971.91;5054057;28;20139;-33
2022/03/06 00:56:49;;;;;;;15.40;9.73;;;;;;;16.43;46.47;101959.56;5053479;28;20410;-39
2022/03/06 00:59:15;;;;;;;15.85;9.23;;;;;;;16.43;46.75;101964.97;5053204;28;20489;-33
2022/03/06 01:01:41;;;;;;;12.65;9.38;;;;;;;16.43;46.72;101956.84;5035567;28;20415;-36
2022/03/06 01:04:07;;;;;;;15.10;9.55;;;;;;;16.47;46.79;101974.38;5053783;28;20040;-33
2022/03/06 01:06:33;;;;;;;13.45;8.80;;;;;;;16.45;46.42;101973.75;5053741;28;20029;-38
2022/03/06 01:08:59;;;;;;;11.35;7.95;;;;;;;16.40;46.32;101965.34;5053587;28;20032;-35
2022/03/06 01:11:25;;;;;;;14.27;10.02;;;;;;;16.41;46.49;101972.47;5035714;28;20074;-32
2022/03/06 01:13:51;;;;;;;12.45;8.52;;;;;;;16.41;46.89;101991.44;5036153;28;20032;-36
2022/03/06 01:16:17;;;;;;;13.15;8.48;;;;;;;16.39;47.07;101986.22;5054105;28;20086;-35
2022/03/06 01:18:44;;;;;;;13.00;8.32;;;;;;;16.38;47.53;101983.69;5035603;28;20021;-33
2022/03/06 01:21:10;;;;;;;14.45;9.32;;;;;;;16.40;47.14;101987.03;5035867;28;20583;-36
2022/03/06 01:23:36;;;;;;;12.65;8.68;;;;;;;16.40;47.08;101985.19;5055918;28;20124;-34
2022/03/06 01:26:03;;;;;;;11.35;8.68;;;;;;;16.38;47.08;101980.97;5057005;28;20044;-34
2022/03/06 01:28:29;;;;;;;13.68;8.80;;;;;;;16.39;47.19;101994.34;5057271;28;20041;-34
2022/03/06 01:30:55;;;;;;;12.88;8.32;;;;;;;16.45;47.20;101995.44;5039035;28;20056;-37
2022/03/06 01:33:21;;;;;;;14.05;8.63;;;;;;;16.45;47.71;101990.03;5057789;28;20025;-37
2022/03/06 01:35:48;;;;;;;13.10;8.15;;;;;;;16.48;47.29;101994.22;5039727;28;20465;-35
2022/03/06 01:38:14;;;;;;;12.38;8.55;;;;;;;16.45;46.98;101992.72;5057030;28;20087;-34
2022/03/06 01:40:40;;;;;;;14.90;9.07;;;;;;;16.48;46.81;102000.50;5057677;28;20033;-33
2022/03/06 01:43:07;;;;;;;11.60;8.60;;;;;;;16.48;47.29;101991.53;5039217;28;20029;-34
2022/03/06 01:45:32;;;;;;;11.70;7.97;;;;;;;16.43;47.35;101983.97;5039241;28;20094;-37
2022/03/06 01:47:59;;;;;;;13.20;8.02;;;;;;;16.47;46.94;101992.53;5056931;28;20485;-32
2022/03/06 01:50:32;;;;;;;11.50;8.05;;;;;;;16.50;47.30;101993.00;5058254;28;20084;-36
2022/03/06 01:53:00;;;;;;;14.75;8.10;;;;;;;16.51;47.38;101997.41;5056629;28;20493;-33
2022/03/06 01:55:27;;;;;;;10.13;7.40;;;;;;;16.52;47.58;101990.91;5056531;28;20090;-35
2022/03/06 01:57:55;;;;;;;13.30;8.30;;;;;;;16.53;46.86;101994.47;5038804;28;20079;-38
2022/03/06 02:00:23;;;;;;;13.60;8.32;;;;;;;16.52;46.57;101998.22;5056533;28;20087;-34
2022/03/06 02:02:50;;;;;;;13.85;8.75;;;;;;;16.53;46.88;102000.75;5022131;28;20037;-34
2022/03/06 02:05:16;;;;;;;11.45;7.60;;;;;;;16.51;46.99;102005.53;5056515;28;20052;-35
2022/03/06 02:07:42;;;;;;;12.32;7.60;;;;;;;16.49;46.69;102004.03;5056359;28;20052;-34
2022/03/06 02:10:10;;;;;;;7.78;6.65;;;;;;;16.53;47.32;102008.03;5056311;28;20025;-36
2022/03/06 02:12:37;;;;;;;11.85;7.35;;;;;;;16.50;47.59;101997.59;5056161;28;20036;-34
2022/03/06 02:15:05;;;;;;;8.45;6.80;;;;;;;16.55;47.33;102005.97;5056229;28;20060;-33
2022/03/06 02:17:31;;;;;;;9.75;6.82;;;;;;;16.55;47.09;102004.09;5038299;28;20033;-35
2022/03/06 02:20:00;;;;;;;9.88;6.75;;;;;;;16.54;46.84;102004.28;5021897;28;20405;-36
2022/03/06 02:22:30;;;;;;;11.48;7.57;;;;;;;16.55;46.98;102004.09;5038590;28;20033;-33
2022/03/06 02:24:56;;;;;;;11.15;7.20;;;;;;;16.56;47.31;102003.03;5056487;28;20029;-33
2022/03/06 02:27:22;;;;;;;8.05;6.40;;;;;;;16.57;47.42;101998.47;5055878;28;20036;-34
2022/03/06 02:29:48;;;;;;;11.52;7.43;;;;;;;16.56;47.00;101994.09;5038511;28;20029;-36
2022/03/06 02:32:17;;;;;;;10.63;7.18;;;;;;;16.61;46.77;101997.88;5038307;28;20057;-35
2022/03/06 02:34:46;;;;;;;7.97;6.18;;;;;;;16.62;47.13;102002.28;5004804;28;20108;-32
2022/03/06 02:37:13;;;;;;;9.63;6.72;;;;;;;16.65;47.01;102001.03;5055721;28;20041;-34
2022/03/06 02:39:39;;;;;;;9.38;6.85;;;;;;;16.67;47.43;101993.53;5056184;28;20044;-34
2022/03/06 02:42:05;;;;;;;9.25;6.35;;;;;;;16.70;47.44;101995.88;5037969;28;20025;-39
2022/03/06 02:44:32;;;;;;;6.80;5.75;;;;;;;16.72;46.95;101995.69;5038485;28;20108;-39
2022/03/06 02:46:58;;;;;;;6.43;5.57;;;;;;;16.73;47.39;101994.63;5055961;28;20029;-36
2022/03/06 02:49:24;;;;;;;9.13;6.07;;;;;;;16.72;47.40;101999.22;5055931;28;20028;-39
2022/03/06 02:51:50;;;;;;;7.72;5.88;;;;;;;16.71;46.73;101991.28;5055522;28;20072;-38
2022/03/06 02:54:17;;;;;;;10.13;6.72;;;;;;;16.71;47.28;101996.72;5055949;28;20037;-38
2022/03/06 02:56:44;;;;;;;9.93;6.63;;;;;;;16.72;46.94;101993.81;5055518;28;20028;-33
2022/03/06 02:59:10;;;;;;;7.78;6.32;;;;;;;16.72;46.94;101991.09;5037522;28;20071;-37
2022/03/06 03:01:40;;;;;;;8.70;6.68;;;;;;;16.72;46.95;101992.97;5055265;28;20100;-38
2022/03/06 03:04:07;;;;;;;9.02;6.88;;;;;;;16.68;46.63;101978.97;5038062;28;20033;-34
2022/03/06 03:06:33;;;;;;;9.80;6.32;;;;;;;16.68;46.42;101987.09;5055244;28;20059;-36
2022/03/06 03:08:59;;;;;;;8.80;5.93;;;;;;;16.63;46.61;101976.00;5055334;28;20388;-34
2022/03/06 03:11:25;;;;;;;8.70;6.00;;;;;;;16.61;46.68;101978.91;5037840;28;20041;-34
2022/03/06 03:13:51;;;;;;;7.63;5.30;;;;;;;16.67;47.09;101979.16;5055833;28;20063;-37
2022/03/06 03:16:17;;;;;;;7.07;5.30;;;;;;;16.67;46.89;101985.41;5055142;28;20028;-35
2022/03/06 03:18:43;;;;;;;4.65;4.15;;;;;;;16.70;47.19;101984.19;5055064;28;20068;-34
2022/03/06 03:21:09;;;;;;;7.35;5.60;;;;;;;16.70;47.06;101985.03;5054761;28;20029;-33
2022/03/06 03:23:34;;;;;;;8.02;5.95;;;;;;;16.67;47.03;101979.97;5055440;28;20381;-35
2022/03/06 03:26:00;;;;;;;6.93;5.03;;;;;;;16.63;47.16;101965.13;5037776;28;20055;-36
2022/03/06 03:28:26;;;;;;;8.07;5.40;;;;;;;16.73;46.74;101981.06;5055023;28;20086;-32
2022/03/06 03:30:52;;;;;;;7.50;5.50;;;;;;;16.72;46.92;101980.25;5037704;28;20033;-35
2022/03/06 03:33:17;;;;;;;8.13;5.15;;;;;;;16.73;47.08;101978.34;5055163;28;20466;-37
2022/03/06 03:35:43;;;;;;;5.45;4.78;;;;;;;16.73;46.94;101975.63;5054911;28;20036;-35
2022/03/06 03:38:09;;;;;;;6.15;5.47;;;;;;;16.68;46.53;101967.25;5037227;28;20031;-33
2022/03/06 03:40:35;;;;;;;6.97;5.53;;;;;;;16.68;46.74;101969.97;5055225;28;20039;-37
2022/03/06 03:43:01;;;;;;;7.53;5.90;;;;;;;16.73;46.52;101976.47;5054758;28;20032;-33
2022/03/06 03:45:26;;;;;;;5.32;4.65;;;;;;;16.71;46.57;101978.53;5054321;28;20553;-37
2022/03/06 03:47:52;;;;;;;6.35;4.90;;;;;;;16.72;46.70;101971.28;5054415;28;20032;-39
2022/03/06 03:50:18;;;;;;;8.45;5.55;;;;;;;16.73;46.11;101986.50;5054303;28;20051;-36
2022/03/06 03:52:44;;;;;;;6.30;5.47;;;;;;;16.73;46.30;101990.03;5054349;28;20029;-37
2022/03/06 03:55:09;;;;;;;8.13;5.40;;;;;;;16.71;46.37;101985.84;5054180;28;20492;-39
2022/03/06 03:57:35;;;;;;;5.93;5.22;;;;;;;16.62;45.81;101972.44;5054715;28;20029;-39
2022/03/06 04:00:01;;;;;;;6.78;5.63;;;;;;;16.68;45.99;101987.09;5054306;28;20036;-38
2022/03/06 04:02:27;;;;;;;8.25;5.15;;;;;;;16.70;46.22;101984.19;5053907;28;20520;-34
2022/03/06 04:04:53;;;;;;;6.22;4.85;;;;;;;16.68;46.01;101989.81;5019769;28;20028;-32
2022/03/06 04:07:19;;;;;;;5.22;4.55;;;;;;;16.69;46.52;101988.75;5036519;28;20036;-32
2022/03/06 04:09:45;;;;;;;5.97;5.10;;;;;;;16.69;46.24;101985.22;5054163;28;20493;-32
2022/03/06 04:12:10;;;;;;;5.57;4.43;;;;;;;16.71;46.53;101994.81;5054060;28;20458;-32
2022/03/06 04:14:36;;;;;;;6.35;5.40;;;;;;;16.72;46.28;101998.41;5036529;28;20037;-33
2022/03/06 04:17:02;;;;;;;7.07;4.85;;;;;;;16.68;46.01;101992.53;5054202;28;20024;-32
2022/03/06 04:19:28;;;;;;;5.90;4.80;;;;;;;16.67;45.99;101995.44;5054115;28;20025;-32
2022/03/06 04:21:54;;;;;;;5.97;4.78;;;;;;;16.65;45.86;101992.91;5053537;28;20381;-33
2022/03/06 04:24:20;;;;;;;7.65;4.22;;;;;;;16.59;45.10;101997.25;5036394;28;20049;-35
2022/03/06 04:26:45;;;;;;;6.65;3.15;;;;;;;16.50;43.50;102011.97;5054065;28;20029;-37
2022/03/06 04:29:11;;;;;;;5.32;3.75;;;;;;;16.39;43.62;102005.19;5054388;28;20029;-32
2022/03/06 04:31:37;;;;;;;3.95;2.92;;;;;;;16.31;43.50;102004.50;5054105;28;20353;-34
2022/03/06 04:34:03;;;;;;;7.00;3.70;;;;;;;16.23;43.63;102008.16;5054251;28;20580;-34
2022/03/06 04:36:29;;;;;;;4.53;2.83;;;;;;;16.08;43.79;101991.97;5053887;28;20032;-36
2022/03/06 04:38:55;;;;;;;7.93;3.75;;;;;;;16.10;43.35;102008.03;5054439;28;20037;-33
2022/03/06 04:41:21;;;;;;;7.93;3.63;;;;;;;16.02;43.79;102011.69;5036618;28;20143;-33
2022/03/06 04:43:47;;;;;;;4.88;3.53;;;;;;;15.93;43.77;102004.72;5054152;28;20366;-35
2022/03/06 04:46:13;;;;;;;8.07;3.38;;;;;;;15.93;43.99;102018.28;5035966;28;20064;-32
2022/03/06 04:48:39;;;;;;;8.15;3.58;;;;;;;15.87;44.04;102020.72;5053495;28;20491;-35
2022/03/06 04:51:05;;;;;;;6.25;3.33;;;;;;;15.78;44.08;102008.31;5053580;28;20045;-34
2022/03/06 04:53:31;;;;;;;5.72;2.67;;;;;;;15.75;43.99;102018.69;5053612;28;20029;-33
2022/03/06 04:55:57;;;;;;;4.45;3.58;;;;;;;15.65;43.87;102006.25;5035625;28;20032;-35
2022/03/06 04:58:22;;;;;;;4.90;3.55;;;;;;;15.69;44.12;102017.53;5053029;28;20403;-32
2022/03/06 05:00:48;;;;;;;5.18;3.53;;;;;;;15.65;43.89;102018.94;5035817;28;20116;-34
2022/03/06 05:03:14;;;;;;;4.03;3.63;;;;;;;15.56;44.01;102014.66;5053756;28;20105;-35
2022/03/06 05:05:40;;;;;;;5.20;3.00;;;;;;;15.58;43.85;102027.00;5053430;28;20033;-34
2022/03/06 05:08:06;;;;;;;5.70;3.90;;;;;;;15.51;43.76;102025.22;5036081;28;20025;-31
2022/03/06 05:10:32;;;;;;;4.20;3.42;;;;;;;15.47;43.77;102028.31;5053441;28;20392;-31
2022/03/06 05:12:58;;;;;;;3.65;3.25;;;;;;;15.44;44.05;102025.13;5035654;28;20025;-32
2022/03/06 05:15:24;;;;;;;5.75;3.92;;;;;;;15.40;43.82;102023.84;5035961;28;20033;-32
2022/03/06 05:17:49;;;;;;;4.85;3.53;;;;;;;15.37;43.99;102022.34;5035414;28;20064;-31
2022/03/06 05:20:15;;;;;;;6.38;4.10;;;;;;;15.35;43.99;102032.50;5053224;28;20061;-34
2022/03/06 05:22:42;;;;;;;3.03;2.72;;;;;;;15.25;44.11;102021.97;5053734;28;20037;-32
2022/03/06 05:25:09;;;;;;;5.70;3.58;;;;;;;15.27;43.70;102032.63;5035407;28;20075;-33
2022/03/06 05:27:35;;;;;;;4.78;3.05;;;;;;;15.26;43.97;102033.63;5035368;28;20029;-32
2022/03/06 05:30:01;;;;;;;4.10;3.55;;;;;;;15.22;43.95;102043.97;5035391;28;20057;-33
2022/03/06 05:32:27;;;;;;;4.85;3.75;;;;;;;15.19;43.94;102041.66;5035461;28;20071;-37
2022/03/06 05:34:53;;;;;;;5.75;3.88;;;;;;;15.11;43.82;102039.03;5053617;28;20033;-33
2022/03/06 05:37:18;;;;;;;4.40;3.53;;;;;;;15.05;43.88;102032.50;5035660;28;20073;-33
2022/03/06 05:39:44;;;;;;;4.13;3.17;;;;;;;15.10;43.82;102048.19;5035465;28;20055;-33
2022/03/06 05:42:10;;;;;;;6.15;3.15;;;;;;;15.02;44.02;102043.66;5035831;28;20037;-34
2022/03/06 05:44:36;;;;;;;3.83;3.38;;;;;;;15.04;43.79;102057.88;5035805;28;20021;-34
2022/03/06 05:47:02;;;;;;;6.10;3.28;;;;;;;14.96;43.80;102049.81;5053269;28;20041;-32
2022/03/06 05:49:28;;;;;;;3.80;2.83;;;;;;;14.99;43.94;102057.59;5053447;28;20147;-34
2022/03/06 05:51:54;;;;;;;7.22;3.42;;;;;;;14.90;43.80;102050.56;5052712;28;20076;-35
2022/03/06 05:54:19;;;;;;;5.25;3.30;;;;;;;14.94;43.83;102061.88;5035243;28;20040;-34
2022/03/06 05:56:45;;;;;;;6.05;3.25;;;;;;;14.92;43.92;102070.16;5053285;28;20440;-34
2022/03/06 05:59:11;;;;;;;5.05;3.28;;;;;;;14.78;43.98;102046.63;5053347;28;20104;-35
2022/03/06 06:01:38;;;;;;;4.60;3.13;;;;;;;14.84;44.51;102064.81;5053110;28;20116;-39
2022/03/06 06:04:04;;;;;;;5.55;3.47;;;;;;;14.82;43.83;102075.84;5053111;28;20040;-32
2022/03/06 06:06:30;;;;;;;9.77;3.83;;;;;;;14.81;43.83;102073.31;5053077;28;20036;-35
2022/03/06 06:08:56;;;;;;;5.00;3.17;;;;;;;14.74;43.94;102077.75;5052882;28;20033;-35
2022/03/06 06:11:22;;;;;;;3.90;2.97;;;;;;;14.77;43.97;102075.53;5038199;28;20045;-33
2022/03/06 06:13:48;;;;;;;4.88;3.13;;;;;;;14.64;43.69;102067.19;5056775;28;20036;-36
2022/03/06 06:16:15;;;;;;;3.38;3.08;;;;;;;14.73;43.92;102079.63;5038443;28;20059;-33
2022/03/06 06:18:41;;;;;;;4.75;3.35;;;;;;;14.72;43.64;102077.94;5056330;28;20108;-35
2022/03/06 06:21:07;;;;;;;3.15;2.80;;;;;;;14.59;43.80;102072.28;5056551;28;20029;-32
2022/03/06 06:23:33;;;;;;;3.70;2.88;;;;;;;14.68;43.82;102095.53;5056378;28;20033;-35
2022/03/06 06:25:59;;;;;;;4.05;2.80;;;;;;;14.64;43.79;102086.13;5056534;28;20033;-38
2022/03/06 06:28:25;;;;;;;5.55;3.50;;;;;;;14.50;44.01;102069.63;5056490;28;20552;-39
2022/03/06 06:30:51;;;;;;;5.55;3.08;;;;;;;14.59;43.61;102093.94;5056544;28;20040;-35
2022/03/06 06:33:17;;;;;;;4.20;3.03;;;;;;;14.60;43.74;102098.28;5038603;28;20029;-36
2022/03/06 06:35:43;;;;;;;6.35;2.95;;;;;;;14.58;44.08;102105.75;5056276;28;20078;-36
2022/03/06 06:38:09;;;;;;;6.00;3.30;;;;;;;14.51;44.01;102106.44;5056088;28;20029;-32
2022/03/06 06:40:35;;;;;;;4.40;3.20;;;;;;;14.43;43.79;102097.53;5021815;28;20033;-34
2022/03/06 06:43:00;;;;;;;6.47;3.08;;;;;;;14.50;43.56;102103.91;5038157;28;20111;-32
2022/03/06 06:45:26;;;;;;;5.30;3.25;;;;;;;14.50;43.67;102110.19;5056625;28;20419;-33
2022/03/06 06:47:52;;;;;;;4.55;2.90;;;;;;;14.48;43.99;102105.97;5038572;28;20029;-35
2022/03/06 06:50:18;;;;;;;7.18;2.88;;;;;;;14.47;43.68;102113.22;5055453;28;20508;-39
2022/03/06 06:52:44;;;;;;;4.13;2.72;;;;;;;14.44;43.86;102108.16;5055630;28;20029;-35
2022/03/06 06:55:10;;;;;;;4.00;2.95;;;;;;;14.41;43.98;102107.69;5037859;28;20078;-33
2022/03/06 06:57:35;;;;;;;4.43;2.80;;;;;;;14.43;43.85;102108.34;5037724;28;20025;-34
2022/03/06 07:00:03;;;;;;;4.25;3.25;;;;;;;14.41;43.90;102113.97;5038379;28;20047;-35
2022/03/06 07:02:28;;;;;;;4.38;3.20;;;;;;;14.32;43.63;102096.94;5055826;28;20036;-33
2022/03/06 07:04:55;;;;;;;4.25;2.85;;;;;;;14.36;43.90;102108.25;5037817;28;20036;-36
2022/03/06 07:07:21;;;;;;;4.32;3.03;;;;;;;14.35;43.94;102120.06;5055300;28;20029;-36
2022/03/06 07:09:46;;;;;;;5.15;3.10;;;;;;;14.31;43.97;102119.56;5021563;28;20478;-36
2022/03/06 07:12:12;;;;;;;6.63;3.13;;;;;;;14.34;44.06;102123.78;5037520;28;20029;-32
2022/03/06 07:14:38;;;;;;;2.92;2.17;;;;;;;14.32;44.24;102121.25;5055233;28;20025;-36
2022/03/06 07:17:04;;;;;;;3.58;2.72;;;;;;;14.28;44.25;102114.53;5037764;28;20029;-37
2022/03/06 07:19:30;;;;;;;4.72;2.60;;;;;;;14.29;44.19;102124.31;5055370;28;20074;-35
2022/03/06 07:21:56;;;;;;;3.40;3.10;;;;;;;14.24;44.04;102124.00;5055674;28;20024;-32
2022/03/06 07:24:21;;;;;;;4.07;2.88;;;;;;;14.27;44.00;102128.22;5037355;28;20032;-34
2022/03/06 07:26:47;;;;;;;3.45;3.13;;;;;;;14.26;43.96;102135.50;5037447;28;20033;-33
2022/03/06 07:29:13;;;;;;;4.43;3.42;;;;;;;14.22;44.35;102131.44;5055393;28;20108;-38
2022/03/06 07:31:39;;;;;;;5.70;3.30;;;;;;;14.26;44.17;102137.34;5037881;28;20029;-37
2022/03/06 07:34:05;;;;;;;3.72;2.45;;;;;;;14.09;44.33;102112.25;5036827;28;20036;-33
2022/03/06 07:36:31;;;;;;;4.68;2.55;;;;;;;14.16;44.02;102120.50;5054778;28;20025;-35
2022/03/06 07:38:56;;;;;;;3.78;2.60;;;;;;;14.24;43.96;102139.38;5054898;28;20080;-35
2022/03/06 07:41:23;;;;;;;3.63;3.03;;;;;;;14.15;44.06;102133.16;5054783;28;20048;-32
2022/03/06 07:43:48;;;;;;;4.05;2.90;;;;;;;14.22;43.96;102144.94;5055194;28;20078;-35
2022/03/06 07:46:14;;;;;;;4.63;3.00;;;;;;;14.22;44.14;102144.13;5054588;28;20037;-36
2022/03/06 07:48:40;;;;;;;5.82;2.92;;;;;;;14.23;44.29;102143.13;5037185;28;20021;-34
2022/03/06 07:51:06;;;;;;;3.03;2.75;;;;;;;14.16;44.04;102132.16;5055991;28;20049;-32
2022/03/06 07:53:32;;;;;;;6.88;2.78;;;;;;;14.19;44.29;102134.50;5073024;28;20029;-32
2022/03/06 07:55:58;;;;;;;4.35;3.05;;;;;;;14.23;44.06;102140.41;5074643;28;20025;-35
2022/03/06 07:58:24;;;;;;;5.85;2.88;;;;;;;14.26;44.13;102140.03;5074077;28;20033;-34
2022/03/06 08:00:49;;;;;;;2.33;2.13;;;;;;;14.27;44.12;102150.66;5072987;28;20036;-34
2022/03/06 08:03:16;;;;;;;7.03;3.03;;;;;;;14.27;43.89;102155.25;5073180;28;20024;-38
2022/03/06 08:05:43;;;;;;;2.95;2.58;;;;;;;14.29;43.92;102161.31;5074753;28;20357;-33
2022/03/06 08:08:09;;;;;;;2.97;2.47;;;;;;;14.25;44.18;102160.00;5074334;28;20082;-37
2022/03/06 08:10:34;;;;;;;4.78;2.80;;;;;;;14.26;43.89;102165.22;5074967;28;20025;-33
2022/03/06 08:13:00;;;;;;;3.55;2.50;;;;;;;14.30;43.81;102163.84;5074610;28;20037;-35
2022/03/06 08:15:26;;;;;;;2.97;2.38;;;;;;;14.35;43.95;102163.31;5074450;28;20033;-35
2022/03/06 08:17:52;;;;;;;5.78;3.28;;;;;;;14.36;43.94;102177.66;5074757;28;20024;-34
2022/03/06 08:20:18;;;;;;;3.72;2.65;;;;;;;14.44;43.92;102167.66;5074292;28;20033;-37
2022/03/06 08:22:44;;;;;;;4.78;2.88;;;;;;;14.51;43.67;102157.81;5074283;28;20024;-34
2022/03/06 08:25:10;;;;;;;5.78;2.45;;;;;;;14.61;43.47;102164.88;5073236;28;20520;-33
2022/03/06 08:27:37;;;;;;;3.47;2.45;;;;;;;14.72;43.06;102180.69;5073008;28;20111;-36
2022/03/06 08:30:05;;;;;;;4.93;2.75;;;;;;;14.79;42.75;102170.84;5074091;28;20112;-37
2022/03/06 08:32:31;;;;;;;2.92;2.10;;;;;;;14.86;43.30;102173.69;5055784;28;20396;-35
2022/03/06 08:34:58;;;;;;;4.00;2.72;;;;;;;14.88;42.90;102177.06;5056538;28;20028;-38
2022/03/06 08:37:24;;;;;;;3.00;2.00;;;;;;;14.84;43.06;102168.47;5073938;28;20585;-33
2022/03/06 08:39:50;;;;;;;3.00;2.45;;;;;;;14.89;42.98;102178.72;5073627;28;20142;-33
2022/03/06 08:42:16;;;;;;;3.63;2.50;;;;;;;14.88;43.09;102172.47;5074163;28;20047;-35
2022/03/06 08:44:42;;;;;;;2.20;2.00;;;;;;;14.83;43.30;102169.47;5072891;28;20040;-35
2022/03/06 08:47:09;;;;;;;2.30;1.70;;;;;;;14.80;43.16;102177.09;5073844;28;20033;-36
2022/03/06 08:49:35;;;;;;;4.38;2.00;;;;;;;14.79;43.66;102181.66;5073888;28;20492;-32
2022/03/06 08:52:01;;;;;;;3.42;2.38;;;;;;;14.76;43.54;102178.47;5054939;28;20056;-35
2022/03/06 08:54:26;;;;;;;2.80;2.15;;;;;;;14.77;43.55;102178.31;5053851;28;20048;-36
2022/03/06 08:56:52;;;;;;;2.88;2.00;;;;;;;14.84;43.43;102176.56;5036500;28;20036;-32
2022/03/06 08:59:19;;;;;;;5.15;2.17;;;;;;;14.84;43.31;102179.28;5054098;28;20079;-36
2022/03/06 09:01:46;;;;;;;2.00;1.83;;;;;;;14.93;43.26;102192.72;5053978;28;20447;-33
2022/03/06 09:04:13;;;;;;;1.70;1.60;;;;;;;14.92;43.19;102182.94;5053406;28;20033;-37
2022/03/06 09:06:40;;;;;;;2.50;1.95;;;;;;;14.93;43.64;102195.44;5053537;28;20033;-36
2022/03/06 09:09:05;;;;;;;3.05;2.40;;;;;;;14.88;43.52;102191.41;5036541;28;20384;-38
2022/03/06 09:11:31;;;;;;;2.50;2.17;;;;;;;14.83;43.86;102191.09;5036411;28;20031;-39
2022/03/06 09:13:59;;;;;;;2.55;2.28;;;;;;;14.85;43.14;102199.88;5053903;28;20029;-39
2022/03/06 09:16:26;;;;;;;2.15;1.80;;;;;;;14.87;43.35;102200.53;5035632;28;20480;-35
2022/03/06 09:18:51;;;;;;;3.00;2.38;;;;;;;14.89;43.25;102209.34;5035525;28;20420;-34
2022/03/06 09:21:17;;;;;;;4.57;2.60;;;;;;;14.91;42.89;102206.44;5036071;28;20037;-37
2022/03/06 09:23:43;;;;;;;2.25;1.98;;;;;;;14.90;43.14;102213.72;5053936;28;20041;-35
2022/03/06 09:26:09;;;;;;;1.98;1.70;;;;;;;14.95;43.45;102205.06;5018996;28;20473;-39
2022/03/06 09:28:35;;;;;;;2.15;1.83;;;;;;;15.05;42.92;102210.25;5053418;28;20021;-37
2022/03/06 09:31:01;;;;;;;5.00;2.65;;;;;;;15.06;43.18;102214.63;5035853;28;20496;-33
2022/03/06 09:33:27;;;;;;;6.07;2.40;;;;;;;15.12;42.82;102184.16;5035546;28;20106;-35
2022/03/06 09:35:53;;;;;;;2.88;1.83;;;;;;;15.34;42.58;102201.38;5035765;28;20029;-34
2022/03/06 09:38:19;;;;;;;3.53;2.28;;;;;;;15.48;42.21;102208.69;5035275;28;20029;-34
2022/03/06 09:40:45;;;;;;;3.63;2.22;;;;;;;16.22;41.08;102207.94;5053426;28;20366;-34
2022/03/06 09:43:18;;;;;;;4.22;2.65;;;;;;;16.62;40.20;102197.59;5053356;28;20032;-36
2022/03/06 09:45:46;;;;;;;4.63;2.28;;;;;;;16.72;40.16;102205.41;5038166;28;20477;-37
2022/03/06 09:48:15;;;;;;;3.08;2.10;;;;;;;17.06;39.75;102197.66;5039253;28;20158;-37
2022/03/06 09:50:42;;;;;;;5.45;2.10;;;;;;;17.03;39.59;102204.28;5051214;28;20052;-34
2022/03/06 09:53:08;;;;;;;2.42;1.77;;;;;;;16.78;40.23;102209.22;5077012;28;20133;-36
2022/03/06 09:55:34;;;;;;;2.05;1.80;;;;;;;16.57;40.58;102215.47;5076222;28;20378;-34
2022/03/06 09:58:00;;;;;;;1.90;1.80;;;;;;;16.75;39.98;102212.31;5077023;28;20174;-34
2022/03/06 10:00:26;;;;;;;3.10;1.90;;;;;;;17.51;38.65;102198.25;5077393;28;20043;-33
2022/03/06 10:02:57;;;;;;;3.05;2.30;;;;;;;17.65;38.55;102199.19;5076550;28;20040;-33
2022/03/06 10:05:35;;;;;;;2.90;2.20;;;;;;;17.86;37.71;102207.28;5076656;28;20028;-35
2022/03/06 10:08:22;;;;;;;3.47;2.38;;;;;;;17.74;37.45;102201.56;5077089;28;20034;-33
2022/03/06 10:10:51;;;;;;;3.67;2.38;;;;;;;18.46;37.28;102195.88;5062176;28;20400;-33
2022/03/06 10:13:23;;;;;;;4.85;2.63;;;;;;;18.90;36.36;102202.75;5076455;28;20365;-35
2022/03/06 10:16:11;;;;;;;3.67;2.72;;;;;;;19.10;35.01;102194.59;5077112;28;20028;-37
2022/03/06 10:18:42;;;;;;;3.47;2.85;;;;;;;19.39;35.05;102203.41;5075381;28;20388;-36
2022/03/06 10:21:13;;;;;;;3.17;2.50;;;;;;;19.17;35.70;102200.03;5076598;28;20483;-35
2022/03/06 10:23:39;;;;;;;4.07;2.38;;;;;;;18.94;36.22;102201.28;5076749;28;20116;-36
2022/03/06 10:26:15;;;;;;;2.97;2.30;;;;;;;18.45;36.25;102207.81;5076528;28;20472;-38
2022/03/06 10:28:53;;;;;;;2.70;2.47;;;;;;;18.07;36.75;102209.13;5076625;28;20028;-37
2022/03/06 10:31:20;;;;;;;2.65;1.92;;;;;;;17.77;37.96;102203.88;5076478;28;20028;-32
2022/03/06 10:33:57;;;;;;;2.92;2.13;;;;;;;17.53;37.71;102207.03;5076131;28;20044;-37
2022/03/06 10:36:37;;;;;;;4.43;2.20;;;;;;;17.53;37.81;102212.47;5074923;28;20040;-36
2022/03/06 10:39:10;;;;;;;2.00;1.83;;;;;;;17.46;38.31;102215.13;5076105;28;20033;-37
2022/03/06 10:41:39;;;;;;;2.30;2.03;;;;;;;17.58;38.08;102218.16;5058127;28;20024;-33
2022/03/06 10:44:07;;;;;;;2.78;1.60;;;;;;;17.36;38.67;102212.75;5075172;28;20090;-34
2022/03/06 10:46:35;;;;;;;3.35;1.85;;;;;;;17.28;38.28;102220.19;5058480;28;20037;-33
2022/03/06 10:49:08;;;;;;;2.20;1.92;;;;;;;17.14;38.75;102214.66;5074397;28;20033;-34
2022/03/06 10:51:40;;;;;;;3.50;1.70;;;;;;;17.06;38.50;102222.09;5074610;28;20041;-36
2022/03/06 10:54:06;;;;;;;1.77;1.55;;;;;;;16.96;39.10;102220.53;5074868;28;20099;-36
2022/03/06 10:56:31;;;;;;;2.15;1.50;;;;;;;16.83;38.95;102223.94;5075301;28;20103;-34
2022/03/06 10:58:57;;;;;;;2.30;1.83;;;;;;;16.75;39.37;102209.59;5075363;28;20024;-38
2022/03/06 11:01:23;;;;;;;3.10;1.90;;;;;;;16.70;39.38;102220.22;5075497;28;20487;-35
2022/03/06 11:03:51;;;;;;;2.70;2.03;;;;;;;16.61;39.48;102220.31;5074280;28;20033;-32
2022/03/06 11:06:19;;;;;;;2.00;1.80;;;;;;;16.56;39.51;102217.31;5075471;28;20035;-35
2022/03/06 11:08:46;;;;;;;2.95;2.05;;;;;;;16.50;39.67;102222.69;5075610;28;20157;-38
2022/03/06 11:11:13;;;;;;;2.38;2.03;;;;;;;16.43;39.38;102231.56;5075485;28;20033;-36
2022/03/06 11:13:39;;;;;;;2.50;1.80;;;;;;;16.38;39.52;102233.16;5075347;28;20036;-33
2022/03/06 11:16:05;;;;;;;3.03;2.00;;;;;;;16.35;39.31;102226.25;5075358;28;20043;-35
2022/03/06 11:18:32;;;;;;;2.70;2.05;;;;;;;16.29;39.75;102232.44;5075726;28;20029;-35
2022/03/06 11:21:01;;;;;;;2.13;1.90;;;;;;;16.25;39.85;102229.25;5074264;28;20456;-33